sensor_id;sensor_type;location;lat;lon;timestamp;pressure;altitude;pressure_sealevel;temperature;humidity
48200;BME280;33990;44.602;10.976;2023-04-28T00:00:52;101396.63;;;20.43;50.81
48200;BME280;33990;44.602;10.976;2023-04-28T00:03:19;101399.34;;;20.43;50.65
48200;BME280;33990;44.602;10.976;2023-04-28T00:05:46;101405.56;;;20.44;50.72
48200;BME280;33990;44.602;10.976;2023-04-28T00:08:15;101402.03;;;20.43;50.80
48200;BME280;33990;44.602;10.976;2023-04-28T00:10:43;101397.63;;;20.42;50.62
48200;BME280;33990;44.602;10.976;2023-04-28T00:13:10;101389.56;;;20.42;50.66
48200;BME280;33990;44.602;10.976;2023-04-28T00:15:37;101394.94;;;20.42;50.56
48200;BME280;33990;44.602;10.976;2023-04-28T00:18:05;101393.22;;;20.41;50.59
48200;BME280;33990;44.602;10.976;2023-04-28T00:20:32;101387.81;;;20.41;50.49
48200;BME280;33990;44.602;10.976;2023-04-28T00:22:59;101394.94;;;20.42;50.44
48200;BME280;33990;44.602;10.976;2023-04-28T00:25:27;101387.81;;;20.41;50.51
48200;BME280;33990;44.602;10.976;2023-04-28T00:27:54;101388.72;;;20.42;50.52
48200;BME280;33990;44.602;10.976;2023-04-28T00:30:21;101387.81;;;20.41;50.39
48200;BME280;33990;44.602;10.976;2023-04-28T00:32:51;101381.59;;;20.41;50.39
48200;BME280;33990;44.602;10.976;2023-04-28T00:35:18;101372.69;;;20.40;50.54
48200;BME280;33990;44.602;10.976;2023-04-28T00:37:45;101372.69;;;20.40;50.38
48200;BME280;33990;44.602;10.976;2023-04-28T00:40:13;101363.75;;;20.40;50.39
48200;BME280;33990;44.602;10.976;2023-04-28T00:42:41;101361.06;;;20.40;50.50
48200;BME280;33990;44.602;10.976;2023-04-28T00:45:09;101366.44;;;20.40;50.40
48200;BME280;33990;44.602;10.976;2023-04-28T00:47:36;101365.59;;;20.39;50.20
48200;BME280;33990;44.602;10.976;2023-04-28T00:50:04;101358.38;;;20.40;50.30
48200;BME280;33990;44.602;10.976;2023-04-28T00:52:33;101357.41;;;20.41;50.43
48200;BME280;33990;44.602;10.976;2023-04-28T00:55:00;101352.16;;;20.39;50.50
48200;BME280;33990;44.602;10.976;2023-04-28T00:57:30;101351.31;;;20.39;50.40
48200;BME280;33990;44.602;10.976;2023-04-28T00:59:59;101359.38;;;20.39;50.54
48200;BME280;33990;44.602;10.976;2023-04-28T01:02:27;101358.53;;;20.38;50.36
48200;BME280;33990;44.602;10.976;2023-04-28T01:04:58;101366.59;;;20.38;50.51
48200;BME280;33990;44.602;10.976;2023-04-28T01:07:26;101355.84;;;20.38;50.35
48200;BME280;33990;44.602;10.976;2023-04-28T01:09:55;101349.59;;;20.38;50.50
48200;BME280;33990;44.602;10.976;2023-04-28T01:12:27;101346.91;;;20.38;50.49
48200;BME280;33990;44.602;10.976;2023-04-28T01:14:56;101356.69;;;20.39;50.58
48200;BME280;33990;44.602;10.976;2023-04-28T01:17:24;101346.91;;;20.38;50.41
48200;BME280;33990;44.602;10.976;2023-04-28T01:19:51;101347.75;;;20.38;50.49
48200;BME280;33990;44.602;10.976;2023-04-28T01:22:19;101344.22;;;20.38;50.63
48200;BME280;33990;44.602;10.976;2023-04-28T01:24:46;101345.06;;;20.38;50.60
48200;BME280;33990;44.602;10.976;2023-04-28T01:27:14;101341.66;;;20.36;50.54
48200;BME280;33990;44.602;10.976;2023-04-28T01:29:41;101345.19;;;20.37;50.40
48200;BME280;33990;44.602;10.976;2023-04-28T01:32:08;101352.41;;;20.36;50.42
48200;BME280;33990;44.602;10.976;2023-04-28T01:34:36;101354.25;;;20.36;50.56
48200;BME280;33990;44.602;10.976;2023-04-28T01:37:05;101356.94;;;20.36;50.62
48200;BME280;33990;44.602;10.976;2023-04-28T01:39:32;101362.31;;;20.36;50.38
48200;BME280;33990;44.602;10.976;2023-04-28T01:42:02;101370.38;;;20.36;50.36
48200;BME280;33990;44.602;10.976;2023-04-28T01:44:30;101373.91;;;20.36;50.56
48200;BME280;33990;44.602;10.976;2023-04-28T01:46:57;101376.75;;;20.35;50.42
48200;BME280;33990;44.602;10.976;2023-04-28T01:49:24;101377.59;;;20.35;50.29
48200;BME280;33990;44.602;10.976;2023-04-28T01:51:52;101380.28;;;20.35;50.45
48200;BME280;33990;44.602;10.976;2023-04-28T01:54:19;101379.44;;;20.35;50.53
48200;BME280;33990;44.602;10.976;2023-04-28T01:56:48;101388.47;;;20.34;50.51
48200;BME280;33990;44.602;10.976;2023-04-28T01:59:17;101385.78;;;20.34;50.30
48200;BME280;33990;44.602;10.976;2023-04-28T02:01:46;101385.78;;;20.34;50.21
48200;BME280;33990;44.602;10.976;2023-04-28T02:04:13;101408.16;;;20.34;50.35
48200;BME280;33990;44.602;10.976;2023-04-28T02:06:41;101408.16;;;20.34;50.34
48200;BME280;33990;44.602;10.976;2023-04-28T02:09:08;101407.31;;;20.34;50.35
48200;BME280;33990;44.602;10.976;2023-04-28T02:11:35;101410.94;;;20.33;50.35
48200;BME280;33990;44.602;10.976;2023-04-28T02:14:03;101409.13;;;20.33;50.27
48200;BME280;33990;44.602;10.976;2023-04-28T02:16:30;101412.78;;;20.32;50.33
48200;BME280;33990;44.602;10.976;2023-04-28T02:18:59;101402.88;;;20.33;50.25
48200;BME280;33990;44.602;10.976;2023-04-28T02:21:27;101408.25;;;20.33;50.25
48200;BME280;33990;44.602;10.976;2023-04-28T02:23:54;101402.03;;;20.32;50.37
48200;BME280;33990;44.602;10.976;2023-04-28T02:26:23;101402.88;;;20.33;50.34
48200;BME280;33990;44.602;10.976;2023-04-28T02:28:50;101408.41;;;20.31;50.34
48200;BME280;33990;44.602;10.976;2023-04-28T02:31:18;101403.03;;;20.31;50.40
48200;BME280;33990;44.602;10.976;2023-04-28T02:33:45;101404.84;;;20.31;50.28
48200;BME280;33990;44.602;10.976;2023-04-28T02:36:13;101404.84;;;20.31;50.44
48200;BME280;33990;44.602;10.976;2023-04-28T02:38:40;101397.63;;;20.31;50.40
48200;BME280;33990;44.602;10.976;2023-04-28T02:41:07;101400.34;;;20.31;50.46
48200;BME280;33990;44.602;10.976;2023-04-28T02:43:36;101398.63;;;20.30;50.33
48200;BME280;33990;44.602;10.976;2023-04-28T02:46:04;101396.78;;;20.31;50.42
48200;BME280;33990;44.602;10.976;2023-04-28T02:48:32;101384.34;;;20.30;50.41
48200;BME280;33990;44.602;10.976;2023-04-28T02:51:02;101385.03;;;20.32;50.28
48200;BME280;33990;44.602;10.976;2023-04-28T02:53:30;101388.72;;;20.31;50.39
48200;BME280;33990;44.602;10.976;2023-04-28T02:55:57;101384.34;;;20.30;50.39
48200;BME280;33990;44.602;10.976;2023-04-28T02:58:25;101388.81;;;20.29;50.40
48200;BME280;33990;44.602;10.976;2023-04-28T03:00:53;101385.19;;;20.30;50.36
48200;BME280;33990;44.602;10.976;2023-04-28T03:03:20;101389.72;;;20.30;50.45
48200;BME280;33990;44.602;10.976;2023-04-28T03:05:48;101383.34;;;20.31;50.96
48200;BME280;33990;44.602;10.976;2023-04-28T03:08:15;101387.75;;;20.32;51.10
48200;BME280;33990;44.602;10.976;2023-04-28T03:10:43;101381.50;;;20.31;50.85
48200;BME280;33990;44.602;10.976;2023-04-28T03:13:10;101387.75;;;20.32;50.94
48200;BME280;33990;44.602;10.976;2023-04-28T03:15:38;101391.28;;;20.32;50.91
48200;BME280;33990;44.602;10.976;2023-04-28T03:18:06;101401.19;;;20.32;50.81
48200;BME280;33990;44.602;10.976;2023-04-28T03:20:33;101397.63;;;20.31;50.91
48200;BME280;33990;44.602;10.976;2023-04-28T03:23:00;101395.09;;;20.30;50.75
48200;BME280;33990;44.602;10.976;2023-04-28T03:25:28;101400.34;;;20.31;50.64
48200;BME280;33990;44.602;10.976;2023-04-28T03:27:56;101406.69;;;20.30;50.88
48200;BME280;33990;44.602;10.976;2023-04-28T03:30:24;101395.09;;;20.30;50.69
48200;BME280;33990;44.602;10.976;2023-04-28T03:32:52;101407.66;;;20.29;50.51
48200;BME280;33990;44.602;10.976;2023-04-28T03:35:19;101409.50;;;20.29;50.64
48200;BME280;33990;44.602;10.976;2023-04-28T03:37:47;101405.94;;;20.28;50.49
48200;BME280;33990;44.602;10.976;2023-04-28T03:40:15;101412.19;;;20.29;50.45
48200;BME280;33990;44.602;10.976;2023-04-28T03:43:20;101416.69;;;20.28;50.58
48200;BME280;33990;44.602;10.976;2023-04-28T03:46:08;101412.31;;;20.27;50.42
48200;BME280;33990;44.602;10.976;2023-04-28T03:48:35;101407.78;;;20.28;50.32
48200;BME280;33990;44.602;10.976;2023-04-28T03:51:03;101399.84;;;20.26;50.35
48200;BME280;33990;44.602;10.976;2023-04-28T03:53:30;101397.16;;;20.26;50.33
48200;BME280;33990;44.602;10.976;2023-04-28T03:55:58;101399.84;;;20.26;50.25
48200;BME280;33990;44.602;10.976;2023-04-28T03:58:25;101396.41;;;20.24;50.39
48200;BME280;33990;44.602;10.976;2023-04-28T04:00:54;101397.28;;;20.24;50.27
48200;BME280;33990;44.602;10.976;2023-04-28T04:03:21;101401.69;;;20.25;50.13
48200;BME280;33990;44.602;10.976;2023-04-28T04:05:55;101399.97;;;20.24;50.28
48200;BME280;33990;44.602;10.976;2023-04-28T04:08:23;101403.50;;;20.25;50.24
48200;BME280;33990;44.602;10.976;2023-04-28T04:10:50;101408.03;;;20.24;50.16
48200;BME280;33990;44.602;10.976;2023-04-28T04:13:19;101410.72;;;20.24;50.42
48200;BME280;33990;44.602;10.976;2023-04-28T04:15:47;101401.81;;;20.24;50.32
48200;BME280;33990;44.602;10.976;2023-04-28T04:18:15;101396.56;;;20.22;50.28
48200;BME280;33990;44.602;10.976;2023-04-28T04:21:08;101391.19;;;20.22;50.32
48200;BME280;33990;44.602;10.976;2023-04-28T04:23:36;101392.13;;;20.21;50.32
48200;BME280;33990;44.602;10.976;2023-04-28T04:26:03;101389.44;;;20.21;50.37
48200;BME280;33990;44.602;10.976;2023-04-28T04:28:31;101399.25;;;20.22;50.34
48200;BME280;33990;44.602;10.976;2023-04-28T04:30:58;101400.09;;;20.23;50.39
48200;BME280;33990;44.602;10.976;2023-04-28T04:33:26;101393.03;;;20.22;50.32
48200;BME280;33990;44.602;10.976;2023-04-28T04:35:53;101392.13;;;20.21;50.24
48200;BME280;33990;44.602;10.976;2023-04-28T04:38:20;101396.56;;;20.22;50.37
48200;BME280;33990;44.602;10.976;2023-04-28T04:40:48;101401.09;;;20.22;50.19
48200;BME280;33990;44.602;10.976;2023-04-28T04:43:15;101409.16;;;20.22;50.40
48200;BME280;33990;44.602;10.976;2023-04-28T04:45:47;101418.16;;;20.21;50.30
48200;BME280;33990;44.602;10.976;2023-04-28T04:48:15;101417.31;;;20.20;50.36
48200;BME280;33990;44.602;10.976;2023-04-28T04:50:43;101426.38;;;20.19;50.31
48200;BME280;33990;44.602;10.976;2023-04-28T04:53:10;101425.38;;;20.20;50.28
48200;BME280;33990;44.602;10.976;2023-04-28T04:55:43;101419.16;;;20.20;50.21
48200;BME280;33990;44.602;10.976;2023-04-28T04:58:10;101420.00;;;20.20;50.15
48200;BME280;33990;44.602;10.976;2023-04-28T05:01:00;101427.22;;;20.20;50.16
48200;BME280;33990;44.602;10.976;2023-04-28T05:03:28;101427.22;;;20.20;50.13
48200;BME280;33990;44.602;10.976;2023-04-28T05:05:56;101414.75;;;20.19;50.20
48200;BME280;33990;44.602;10.976;2023-04-28T05:08:42;101422.69;;;20.20;50.19
48200;BME280;33990;44.602;10.976;2023-04-28T05:11:09;101419.28;;;20.18;50.04
48200;BME280;33990;44.602;10.976;2023-04-28T05:13:37;101422.94;;;20.17;50.24
48200;BME280;33990;44.602;10.976;2023-04-28T05:16:06;101424.66;;;20.18;50.10
48200;BME280;33990;44.602;10.976;2023-04-28T05:18:37;101436.38;;;20.17;50.03
48200;BME280;33990;44.602;10.976;2023-04-28T05:21:04;101433.69;;;20.17;50.15
48200;BME280;33990;44.602;10.976;2023-04-28T05:23:32;101435.53;;;20.17;50.22
48200;BME280;33990;44.602;10.976;2023-04-28T05:26:00;101438.22;;;20.17;50.20
48200;BME280;33990;44.602;10.976;2023-04-28T05:28:29;101443.59;;;20.17;50.11
48200;BME280;33990;44.602;10.976;2023-04-28T05:31:00;101448.13;;;20.16;50.10
48200;BME280;33990;44.602;10.976;2023-04-28T05:33:29;101448.97;;;20.17;50.37
48200;BME280;33990;44.602;10.976;2023-04-28T05:35:57;101446.16;;;20.18;50.10
48200;BME280;33990;44.602;10.976;2023-04-28T05:38:24;101446.16;;;20.18;50.31
48200;BME280;33990;44.602;10.976;2023-04-28T05:40:53;101448.88;;;20.18;50.10
48200;BME280;33990;44.602;10.976;2023-04-28T05:43:20;101447.88;;;20.19;50.06
48200;BME280;33990;44.602;10.976;2023-04-28T05:45:49;101453.38;;;20.18;50.30
48200;BME280;33990;44.602;10.976;2023-04-28T05:48:17;101456.06;;;20.18;50.13
48200;BME280;33990;44.602;10.976;2023-04-28T05:50:44;101456.06;;;20.18;50.33
48200;BME280;33990;44.602;10.976;2023-04-28T05:53:12;101447.13;;;20.17;50.23
48200;BME280;33990;44.602;10.976;2023-04-28T05:55:39;101453.38;;;20.18;50.33
48200;BME280;33990;44.602;10.976;2023-04-28T05:58:08;101449.81;;;20.17;50.31
48200;BME280;33990;44.602;10.976;2023-04-28T06:00:36;101450.69;;;20.18;50.45
48200;BME280;33990;44.602;10.976;2023-04-28T06:03:04;101445.31;;;20.18;50.49
48200;BME280;33990;44.602;10.976;2023-04-28T06:05:32;101450.81;;;20.16;50.62
48200;BME280;33990;44.602;10.976;2023-04-28T06:07:59;101453.50;;;20.16;50.64
48200;BME280;33990;44.602;10.976;2023-04-28T06:10:27;101448.00;;;20.18;50.56
48200;BME280;33990;44.602;10.976;2023-04-28T06:12:54;101436.50;;;20.16;50.57
48200;BME280;33990;44.602;10.976;2023-04-28T06:15:22;101431.00;;;20.17;50.77
48200;BME280;33990;44.602;10.976;2023-04-28T06:17:49;101428.31;;;20.17;50.76
48200;BME280;33990;44.602;10.976;2023-04-28T06:20:17;101423.81;;;20.18;51.05
48200;BME280;33990;44.602;10.976;2023-04-28T06:22:44;101437.25;;;20.18;50.98
48200;BME280;33990;44.602;10.976;2023-04-28T06:25:12;101434.44;;;20.19;51.00
48200;BME280;33990;44.602;10.976;2023-04-28T06:27:44;101440.66;;;20.20;51.11
48200;BME280;33990;44.602;10.976;2023-04-28T06:30:19;101440.53;;;20.21;51.26
48200;BME280;33990;44.602;10.976;2023-04-28T06:32:47;101437.84;;;20.21;51.12
48200;BME280;33990;44.602;10.976;2023-04-28T06:35:15;101447.63;;;20.22;51.32
48200;BME280;33990;44.602;10.976;2023-04-28T06:37:42;101443.13;;;20.23;51.46
48200;BME280;33990;44.602;10.976;2023-04-28T06:40:10;101441.28;;;20.23;51.14
48200;BME280;33990;44.602;10.976;2023-04-28T06:42:41;101435.91;;;20.23;51.23
48200;BME280;33990;44.602;10.976;2023-04-28T06:45:17;101434.91;;;20.24;51.49
48200;BME280;33990;44.602;10.976;2023-04-28T06:47:45;101431.28;;;20.25;51.85
48200;BME280;33990;44.602;10.976;2023-04-28T06:50:12;101435.66;;;20.27;51.52
48200;BME280;33990;44.602;10.976;2023-04-28T06:52:39;101435.66;;;20.27;51.73
48200;BME280;33990;44.602;10.976;2023-04-28T06:55:07;101440.06;;;20.28;51.81
48200;BME280;33990;44.602;10.976;2023-04-28T06:57:35;101440.91;;;20.28;51.67
48200;BME280;33990;44.602;10.976;2023-04-28T07:00:04;101441.75;;;20.29;51.38
48200;BME280;33990;44.602;10.976;2023-04-28T07:02:32;101437.22;;;20.29;51.59
48200;BME280;33990;44.602;10.976;2023-04-28T07:05:00;101438.09;;;20.30;51.68
48200;BME280;33990;44.602;10.976;2023-04-28T07:07:27;101432.72;;;20.30;51.43
48200;BME280;33990;44.602;10.976;2023-04-28T07:09:55;101433.44;;;20.32;51.36
48200;BME280;33990;44.602;10.976;2023-04-28T07:12:22;101435.16;;;20.33;51.49
48200;BME280;33990;44.602;10.976;2023-04-28T07:14:49;101436.88;;;20.34;51.67
48200;BME280;33990;44.602;10.976;2023-04-28T07:17:17;101440.44;;;20.34;51.66
48200;BME280;33990;44.602;10.976;2023-04-28T07:19:46;101432.22;;;20.36;51.61
48200;BME280;33990;44.602;10.976;2023-04-28T07:22:16;101432.09;;;20.37;51.60
48200;BME280;33990;44.602;10.976;2023-04-28T07:24:43;101437.34;;;20.39;51.50
48200;BME280;33990;44.602;10.976;2023-04-28T07:27:11;101444.44;;;20.40;51.46
48200;BME280;33990;44.602;10.976;2023-04-28T07:29:38;101444.31;;;20.41;51.44
48200;BME280;33990;44.602;10.976;2023-04-28T07:32:06;101452.28;;;20.43;51.47
48200;BME280;33990;44.602;10.976;2023-04-28T07:34:36;101442.50;;;20.42;51.34
48200;BME280;33990;44.602;10.976;2023-04-28T07:37:04;101439.66;;;20.43;51.41
48200;BME280;33990;44.602;10.976;2023-04-28T07:39:32;101437.69;;;20.45;51.33
48200;BME280;33990;44.602;10.976;2023-04-28T07:42:01;101439.53;;;20.45;51.32
48200;BME280;33990;44.602;10.976;2023-04-28T07:44:30;101434.16;;;20.45;51.32
48200;BME280;33990;44.602;10.976;2023-04-28T07:47:01;101441.28;;;20.46;51.28
48200;BME280;33990;44.602;10.976;2023-04-28T07:49:29;101440.38;;;20.45;51.25
48200;BME280;33990;44.602;10.976;2023-04-28T07:51:57;101436.00;;;20.44;51.20
48200;BME280;33990;44.602;10.976;2023-04-28T07:54:24;101436.13;;;20.43;51.23
48200;BME280;33990;44.602;10.976;2023-04-28T07:56:52;101428.06;;;20.43;51.25
48200;BME280;33990;44.602;10.976;2023-04-28T07:59:19;101440.53;;;20.44;50.85
48200;BME280;33990;44.602;10.976;2023-04-28T08:01:46;101443.34;;;20.42;50.73
48200;BME280;33990;44.602;10.976;2023-04-28T08:04:14;101448.72;;;20.42;50.68
48200;BME280;33990;44.602;10.976;2023-04-28T08:06:42;101454.97;;;20.43;50.41
48200;BME280;33990;44.602;10.976;2023-04-28T08:09:09;101455.81;;;20.43;50.12
48200;BME280;33990;44.602;10.976;2023-04-28T08:11:37;101461.19;;;20.43;50.24
48200;BME280;33990;44.602;10.976;2023-04-28T08:14:04;101465.72;;;20.43;50.25
48200;BME280;33990;44.602;10.976;2023-04-28T08:16:32;101455.66;;;20.45;50.39
48200;BME280;33990;44.602;10.976;2023-04-28T08:19:03;101462.78;;;20.46;50.66
48200;BME280;33990;44.602;10.976;2023-04-28T08:21:31;101452.88;;;20.46;50.79
48200;BME280;33990;44.602;10.976;2023-04-28T08:23:58;101446.50;;;20.47;50.77
48200;BME280;33990;44.602;10.976;2023-04-28T08:26:26;101440.28;;;20.47;50.75
48200;BME280;33990;44.602;10.976;2023-04-28T08:28:53;101439.28;;;20.48;50.92
48200;BME280;33990;44.602;10.976;2023-04-28T08:31:20;101442.63;;;20.52;50.27
48200;BME280;33990;44.602;10.976;2023-04-28T08:33:48;101432.72;;;20.52;50.57
48200;BME280;33990;44.602;10.976;2023-04-28T08:36:17;101434.41;;;20.53;50.57
48200;BME280;33990;44.602;10.976;2023-04-28T08:38:45;101428.09;;;20.54;50.55
48200;BME280;33990;44.602;10.976;2023-04-28T08:41:14;101433.47;;;20.54;50.68
48200;BME280;33990;44.602;10.976;2023-04-28T08:43:41;101428.94;;;20.55;50.74
48200;BME280;33990;44.602;10.976;2023-04-28T08:46:09;101432.47;;;20.55;50.55
48200;BME280;33990;44.602;10.976;2023-04-28T08:48:40;101432.47;;;20.55;50.51
48200;BME280;33990;44.602;10.976;2023-04-28T08:51:08;101421.72;;;20.55;50.68
48200;BME280;33990;44.602;10.976;2023-04-28T08:53:37;101427.81;;;20.57;50.87
48200;BME280;33990;44.602;10.976;2023-04-28T08:56:26;101426.84;;;20.58;50.88
48200;BME280;33990;44.602;10.976;2023-04-28T08:59:01;101435.88;;;20.57;51.10
48200;BME280;33990;44.602;10.976;2023-04-28T09:01:30;101440.16;;;20.60;51.10
48200;BME280;33990;44.602;10.976;2023-04-28T09:04:01;101439.19;;;20.61;50.96
48200;BME280;33990;44.602;10.976;2023-04-28T09:06:37;101430.25;;;20.60;50.81
48200;BME280;33990;44.602;10.976;2023-04-28T09:11:58;101432.94;;;20.60;51.12
48200;BME280;33990;44.602;10.976;2023-04-28T09:14:31;101430.41;;;20.59;51.21
48200;BME280;33990;44.602;10.976;2023-04-28T09:16:59;101426.72;;;20.60;51.32
48200;BME280;33990;44.602;10.976;2023-04-28T09:19:33;101429.53;;;20.58;51.55
48200;BME280;33990;44.602;10.976;2023-04-28T09:22:03;101432.22;;;20.58;51.86
48200;BME280;33990;44.602;10.976;2023-04-28T09:24:44;101431.34;;;20.58;53.34
48200;BME280;33990;44.602;10.976;2023-04-28T09:27:14;101425.25;;;20.56;52.46
48200;BME280;33990;44.602;10.976;2023-04-28T09:29:52;101420.88;;;20.55;53.02
48200;BME280;33990;44.602;10.976;2023-04-28T09:32:21;101414.63;;;20.54;53.01
48200;BME280;33990;44.602;10.976;2023-04-28T09:34:53;101399.34;;;20.55;54.06
48200;BME280;33990;44.602;10.976;2023-04-28T09:37:26;101403.88;;;20.54;55.80
48200;BME280;33990;44.602;10.976;2023-04-28T09:40:05;101403.88;;;20.54;53.93
48200;BME280;33990;44.602;10.976;2023-04-28T09:42:40;101409.38;;;20.53;53.52
48200;BME280;33990;44.602;10.976;2023-04-28T09:45:10;101413.75;;;20.54;55.84
48200;BME280;33990;44.602;10.976;2023-04-28T09:47:42;101422.81;;;20.53;56.11
48200;BME280;33990;44.602;10.976;2023-04-28T09:50:12;101416.56;;;20.52;55.09
48200;BME280;33990;44.602;10.976;2023-04-28T09:52:42;101413.88;;;20.52;54.06
48200;BME280;33990;44.602;10.976;2023-04-28T09:55:11;101419.41;;;20.51;55.28
48200;BME280;33990;44.602;10.976;2023-04-28T09:57:39;101419.41;;;20.51;56.38
48200;BME280;33990;44.602;10.976;2023-04-28T10:00:07;101412.28;;;20.49;55.48
48200;BME280;33990;44.602;10.976;2023-04-28T10:02:36;101416.72;;;20.51;55.82
48200;BME280;33990;44.602;10.976;2023-04-28T10:05:07;101410.50;;;20.50;57.15
48200;BME280;33990;44.602;10.976;2023-04-28T10:07:37;101411.34;;;20.51;56.65
48200;BME280;33990;44.602;10.976;2023-04-28T10:10:06;101409.59;;;20.49;56.44
48200;BME280;33990;44.602;10.976;2023-04-28T10:12:34;101399.72;;;20.50;57.62
48200;BME280;33990;44.602;10.976;2023-04-28T10:15:06;101406.06;;;20.49;56.65
48200;BME280;33990;44.602;10.976;2023-04-28T10:17:34;101400.69;;;20.49;57.93
48200;BME280;33990;44.602;10.976;2023-04-28T10:20:03;101405.22;;;20.48;56.56
48200;BME280;33990;44.602;10.976;2023-04-28T10:25:31;101385.28;;;20.51;57.38
48200;BME280;33990;44.602;10.976;2023-04-28T10:28:03;101371.84;;;20.51;57.76
48200;BME280;33990;44.602;10.976;2023-04-28T10:30:32;101381.75;;;20.51;56.34
48200;BME280;33990;44.602;10.976;2023-04-28T10:35:41;101351.31;;;20.50;57.88
48200;BME280;33990;44.602;10.976;2023-04-28T10:38:10;101354.00;;;20.50;57.82
48200;BME280;33990;44.602;10.976;2023-04-28T10:40:45;101354.00;;;20.50;58.04
48200;BME280;33990;44.602;10.976;2023-04-28T10:43:35;101354.00;;;20.50;58.46
48200;BME280;33990;44.602;10.976;2023-04-28T10:46:07;101354.00;;;20.50;58.85
48200;BME280;33990;44.602;10.976;2023-04-28T10:58:46;101334.41;;;20.48;58.83
48200;BME280;33990;44.602;10.976;2023-04-28T11:08:57;101331.50;;;20.51;59.23
48200;BME280;33990;44.602;10.976;2023-04-28T11:11:28;101319.88;;;20.51;59.45
48200;BME280;33990;44.602;10.976;2023-04-28T11:16:55;101315.47;;;20.49;59.13
48200;BME280;33990;44.602;10.976;2023-04-28T11:19:27;101319.03;;;20.50;58.81
48200;BME280;33990;44.602;10.976;2023-04-28T11:21:56;101322.56;;;20.51;59.03
48200;BME280;33990;44.602;10.976;2023-04-28T11:24:25;101317.19;;;20.51;58.91
48200;BME280;33990;44.602;10.976;2023-04-28T11:26:53;101320.75;;;20.51;58.97
48200;BME280;33990;44.602;10.976;2023-04-28T11:29:37;101316.22;;;20.52;58.42
48200;BME280;33990;44.602;10.976;2023-04-28T11:32:05;101315.34;;;20.51;58.55
48200;BME280;33990;44.602;10.976;2023-04-28T11:34:33;101310.81;;;20.52;57.63
48200;BME280;33990;44.602;10.976;2023-04-28T11:37:01;101308.13;;;20.52;56.76
48200;BME280;33990;44.602;10.976;2023-04-28T11:39:31;101300.06;;;20.52;57.69
48200;BME280;33990;44.602;10.976;2023-04-28T11:42:09;101298.38;;;20.51;58.43
48200;BME280;33990;44.602;10.976;2023-04-28T11:44:37;101304.59;;;20.51;59.34
48200;BME280;33990;44.602;10.976;2023-04-28T11:47:05;101291.16;;;20.51;59.30
48200;BME280;33990;44.602;10.976;2023-04-28T11:49:44;101282.22;;;20.51;58.79
48200;BME280;33990;44.602;10.976;2023-04-28T11:52:12;101292.84;;;20.52;59.53
48200;BME280;33990;44.602;10.976;2023-04-28T11:54:39;101291.84;;;20.53;59.71
48200;BME280;33990;44.602;10.976;2023-04-28T11:57:16;101287.47;;;20.52;59.97
48200;BME280;33990;44.602;10.976;2023-04-28T11:59:43;101286.47;;;20.53;60.13
48200;BME280;33990;44.602;10.976;2023-04-28T12:02:12;101283.78;;;20.53;60.21
48200;BME280;33990;44.602;10.976;2023-04-28T12:04:41;101282.09;;;20.52;58.05
48200;BME280;33990;44.602;10.976;2023-04-28T12:07:10;101274.88;;;20.53;57.79
48200;BME280;33990;44.602;10.976;2023-04-28T12:12:09;101273.88;;;20.54;58.87
48200;BME280;33990;44.602;10.976;2023-04-28T12:15:00;101282.84;;;20.54;59.18
48200;BME280;33990;44.602;10.976;2023-04-28T12:17:30;101271.19;;;20.54;58.66
48200;BME280;33990;44.602;10.976;2023-04-28T12:20:00;101266.69;;;20.54;59.00
48200;BME280;33990;44.602;10.976;2023-04-28T12:22:28;101260.44;;;20.54;58.87
48200;BME280;33990;44.602;10.976;2023-04-28T12:25:10;101258.63;;;20.54;59.18
48200;BME280;33990;44.602;10.976;2023-04-28T12:27:38;101256.78;;;20.55;59.30
48200;BME280;33990;44.602;10.976;2023-04-28T12:30:36;101245.19;;;20.54;59.46
48200;BME280;33990;44.602;10.976;2023-04-28T12:33:23;101247.88;;;20.54;59.49
48200;BME280;33990;44.602;10.976;2023-04-28T12:35:52;101242.47;;;20.54;59.30
48200;BME280;33990;44.602;10.976;2023-04-28T12:38:22;101243.34;;;20.55;59.11
48200;BME280;33990;44.602;10.976;2023-04-28T12:40:49;101229.03;;;20.54;59.24
48200;BME280;33990;44.602;10.976;2023-04-28T12:43:16;101227.19;;;20.55;59.13
48200;BME280;33990;44.602;10.976;2023-04-28T12:45:44;101231.72;;;20.54;58.76
48200;BME280;33990;44.602;10.976;2023-04-28T12:48:11;101230.75;;;20.55;58.61
48200;BME280;33990;44.602;10.976;2023-04-28T12:50:38;101225.34;;;20.55;58.38
48200;BME280;33990;44.602;10.976;2023-04-28T12:53:05;101221.69;;;20.56;54.51
48200;BME280;33990;44.602;10.976;2023-04-28T12:55:33;101220.56;;;20.59;55.23
48200;BME280;33990;44.602;10.976;2023-04-28T12:58:00;101218.72;;;20.59;56.71
48200;BME280;33990;44.602;10.976;2023-04-28T13:00:27;101219.59;;;20.60;56.93
48200;BME280;33990;44.602;10.976;2023-04-28T13:02:54;101212.50;;;20.59;56.89
48200;BME280;33990;44.602;10.976;2023-04-28T13:05:23;101217.03;;;20.58;55.96
48200;BME280;33990;44.602;10.976;2023-04-28T13:07:50;101204.69;;;20.56;52.68
48200;BME280;33990;44.602;10.976;2023-04-28T13:10:18;101202.84;;;20.56;52.00
48200;BME280;33990;44.602;10.976;2023-04-28T13:12:47;101202.84;;;20.56;54.12
48200;BME280;33990;44.602;10.976;2023-04-28T13:15:14;101202.84;;;20.56;53.43
48200;BME280;33990;44.602;10.976;2023-04-28T13:17:42;101191.09;;;20.57;54.96
48200;BME280;33990;44.602;10.976;2023-04-28T13:20:11;101195.50;;;20.58;55.56
48200;BME280;33990;44.602;10.976;2023-04-28T13:22:38;101193.78;;;20.57;55.74